Time;durP1;ratioP1;P1;durP2;ratioP2;P2;SDS_P1;SDS_P2;PMS_P1;PMS_P2;Temp;Humidity;BMP_temperature;BMP_pressure;BME280_temperature;BME280_humidity;BME280_pressure;Samples;Min_cycle;Max_cycle;Signal;HPM_P1;HPM_P2
2021/08/14 00:01:28;;;;;;;13.45;5.18;;;;;;;;;;5020100;28;20710;-69
2021/08/14 00:03:53;;;;;;;13.13;5.20;;;;;;;;;;5020813;28;20269;-69
2021/08/14 00:06:19;;;;;;;12.60;5.60;;;;;;;;;;5017931;28;20551;-68
2021/08/14 00:08:45;;;;;;;11.80;5.45;;;;;;;;;;5014234;28;20196;-68
2021/08/14 00:11:11;;;;;;;16.70;6.07;;;;;;;;;;5017089;28;20208;-69
2021/08/14 00:13:36;;;;;;;12.40;5.70;;;;;;;;;;5024605;28;20178;-69
2021/08/14 00:16:02;;;;;;;13.02;5.95;;;;;;;;;;5008881;28;20185;-69
2021/08/14 00:18:27;;;;;;;15.82;5.93;;;;;;;;;;5024603;28;20552;-69
2021/08/14 00:20:52;;;;;;;16.73;6.35;;;;;;;;;;5011799;28;20190;-68
2021/08/14 00:23:18;;;;;;;14.10;5.65;;;;;;;;;;5020440;28;20260;-69
2021/08/14 00:25:44;;;;;;;15.30;6.97;;;;;;;;;;5017439;28;20681;-69
2021/08/14 00:28:09;;;;;;;12.43;5.72;;;;;;;;;;5028223;28;20189;-68
2021/08/14 00:30:35;;;;;;;17.27;5.78;;;;;;;;;;5015689;28;20268;-68
2021/08/14 00:33:00;;;;;;;16.63;6.20;;;;;;;;;;5022090;28;20276;-68
2021/08/14 00:35:25;;;;;;;13.27;5.50;;;;;;;;;;5009903;28;20183;-68
2021/08/14 00:37:52;;;;;;;10.50;5.30;;;;;;;;;;5026012;28;20560;-68
2021/08/14 00:40:17;;;;;;;14.30;5.65;;;;;;;;;;5009297;28;20186;-68
2021/08/14 00:42:43;;;;;;;11.38;5.15;;;;;;;;;;5026494;28;20201;-68
2021/08/14 00:45:09;;;;;;;11.25;5.25;;;;;;;;;;5018398;28;20186;-68
2021/08/14 00:47:34;;;;;;;16.38;5.15;;;;;;;;;;5018862;28;20244;-68
2021/08/14 00:49:59;;;;;;;16.38;6.18;;;;;;;;;;5022964;28;20213;-68
2021/08/14 00:52:25;;;;;;;15.68;6.25;;;;;;;;;;5013497;28;20190;-68
2021/08/14 00:54:50;;;;;;;11.70;5.35;;;;;;;;;;5023198;28;20206;-68
2021/08/14 00:57:16;;;;;;;15.13;6.03;;;;;;;;;;5015748;28;20178;-68
2021/08/14 00:59:45;;;;;;;15.98;6.35;;;;;;;;;;5016989;28;20225;-68
2021/08/14 01:02:11;;;;;;;15.15;6.90;;;;;;;;;;5012692;28;20279;-69
2021/08/14 01:04:37;;;;;;;14.32;6.55;;;;;;;;;;5023738;28;20203;-69
2021/08/14 01:07:03;;;;;;;22.83;7.38;;;;;;;;;;5017067;28;20202;-69
2021/08/14 01:09:28;;;;;;;17.10;7.05;;;;;;;;;;5022735;28;20544;-68
2021/08/14 01:11:56;;;;;;;15.43;6.43;;;;;;;;;;5013736;28;20231;-69
2021/08/14 01:14:21;;;;;;;16.63;6.78;;;;;;;;;;5022781;28;20193;-68
2021/08/14 01:16:47;;;;;;;20.83;6.38;;;;;;;;;;5025556;28;20247;-68
2021/08/14 01:19:13;;;;;;;18.13;6.30;;;;;;;;;;5015458;28;20196;-68
2021/08/14 01:21:47;;;;;;;20.05;6.03;;;;;;;;;;5024510;28;20674;-69
2021/08/14 01:24:12;;;;;;;17.17;5.90;;;;;;;;;;5017145;28;20177;-68
2021/08/14 01:26:40;;;;;;;17.13;6.32;;;;;;;;;;5025003;28;20803;-68
2021/08/14 01:29:06;;;;;;;20.15;5.93;;;;;;;;;;5016011;28;20178;-68
2021/08/14 01:31:31;;;;;;;16.85;5.45;;;;;;;;;;5025814;28;20338;-68
2021/08/14 01:33:57;;;;;;;17.73;5.97;;;;;;;;;;5020031;28;20193;-69
2021/08/14 01:36:22;;;;;;;14.80;6.05;;;;;;;;;;5026831;28;20182;-69
2021/08/14 01:38:53;;;;;;;17.98;6.78;;;;;;;;;;5019046;28;20276;-69
2021/08/14 01:41:20;;;;;;;14.90;5.43;;;;;;;;;;5026038;28;20194;-69
2021/08/14 01:44:06;;;;;;;17.17;5.10;;;;;;;;;;5019441;28;21058;-69
2021/08/14 01:46:40;;;;;;;16.55;6.18;;;;;;;;;;5025523;28;20216;-69
2021/08/14 01:49:06;;;;;;;17.60;5.53;;;;;;;;;;5017870;28;20274;-69
2021/08/14 01:51:31;;;;;;;16.58;5.75;;;;;;;;;;5027983;28;20278;-69
2021/08/14 01:53:59;;;;;;;17.88;6.07;;;;;;;;;;5023575;28;20273;-69
2021/08/14 01:56:26;;;;;;;17.73;6.20;;;;;;;;;;5023574;28;20190;-69
2021/08/14 01:58:52;;;;;;;16.20;5.35;;;;;;;;;;5027241;28;20702;-69
2021/08/14 02:01:18;;;;;;;14.70;5.57;;;;;;;;;;5013212;28;20222;-69
2021/08/14 02:03:49;;;;;;;14.52;5.85;;;;;;;;;;5026556;28;20204;-69
2021/08/14 02:06:16;;;;;;;20.02;6.18;;;;;;;;;;5032264;28;20221;-69
2021/08/14 02:08:41;;;;;;;18.10;6.35;;;;;;;;;;5023081;28;20182;-69
2021/08/14 02:11:12;;;;;;;18.58;5.90;;;;;;;;;;5012396;28;20276;-69
2021/08/14 02:13:37;;;;;;;16.42;5.78;;;;;;;;;;5029161;28;20185;-68
2021/08/14 02:16:03;;;;;;;19.42;5.93;;;;;;;;;;5016055;28;20182;-68
2021/08/14 02:18:28;;;;;;;23.92;6.03;;;;;;;;;;5028465;28;20186;-69
2021/08/14 02:20:54;;;;;;;19.05;6.72;;;;;;;;;;5012464;28;20339;-69
2021/08/14 02:23:19;;;;;;;17.60;5.63;;;;;;;;;;5026744;28;20174;-68
2021/08/14 02:25:45;;;;;;;14.32;5.60;;;;;;;;;;5015881;28;20197;-69
2021/08/14 02:28:10;;;;;;;17.77;6.43;;;;;;;;;;5023460;28;20261;-69
2021/08/14 02:30:36;;;;;;;18.48;5.32;;;;;;;;;;5022508;28;20240;-68
2021/08/14 02:33:01;;;;;;;15.30;6.05;;;;;;;;;;5022341;28;20608;-68
2021/08/14 02:35:26;;;;;;;18.08;5.90;;;;;;;;;;5023141;28;20765;-68
2021/08/14 02:37:52;;;;;;;18.08;6.03;;;;;;;;;;5019860;28;20186;-68
2021/08/14 02:40:17;;;;;;;15.32;5.00;;;;;;;;;;5023531;28;20182;-69
2021/08/14 02:42:44;;;;;;;14.57;6.57;;;;;;;;;;5016611;28;20186;-68
2021/08/14 02:45:10;;;;;;;21.33;6.18;;;;;;;;;;5024016;28;20194;-68
2021/08/14 02:47:37;;;;;;;18.00;6.18;;;;;;;;;;5021490;28;20206;-68
2021/08/14 02:50:03;;;;;;;22.00;6.30;;;;;;;;;;5018520;28;20212;-68
2021/08/14 02:52:29;;;;;;;17.83;6.50;;;;;;;;;;5021909;28;20240;-68
2021/08/14 02:54:54;;;;;;;18.45;5.78;;;;;;;;;;5024740;28;20189;-68
2021/08/14 02:57:19;;;;;;;17.77;5.85;;;;;;;;;;5013598;28;20183;-68
2021/08/14 02:59:45;;;;;;;24.42;6.70;;;;;;;;;;5024471;28;20208;-68
2021/08/14 03:02:10;;;;;;;19.85;7.03;;;;;;;;;;5028855;28;20248;-69
2021/08/14 03:04:35;;;;;;;21.20;7.47;;;;;;;;;;5015859;28;20650;-68
2021/08/14 03:07:00;;;;;;;23.50;7.03;;;;;;;;;;5022732;28;20211;-68
2021/08/14 03:09:26;;;;;;;27.92;7.32;;;;;;;;;;5013502;28;20190;-68
2021/08/14 03:11:51;;;;;;;19.05;6.10;;;;;;;;;;5029010;28;20190;-68
2021/08/14 03:14:16;;;;;;;20.75;6.32;;;;;;;;;;5016047;28;20652;-68
2021/08/14 03:16:42;;;;;;;22.77;7.88;;;;;;;;;;5023462;28;20538;-68
2021/08/14 03:19:07;;;;;;;15.13;6.13;;;;;;;;;;5012410;28;20263;-70
2021/08/14 03:21:32;;;;;;;24.35;7.45;;;;;;;;;;5025598;28;20759;-68
2021/08/14 03:23:58;;;;;;;20.13;7.90;;;;;;;;;;5013839;28;20186;-68
2021/08/14 03:26:25;;;;;;;21.15;7.15;;;;;;;;;;5024634;28;20705;-68
2021/08/14 03:28:50;;;;;;;24.58;7.45;;;;;;;;;;5011874;28;20201;-69
2021/08/14 03:31:16;;;;;;;21.13;6.63;;;;;;;;;;5027068;28;20537;-69
2021/08/14 03:33:41;;;;;;;22.48;7.30;;;;;;;;;;5022152;28;20188;-69
2021/08/14 03:36:06;;;;;;;22.88;7.97;;;;;;;;;;5014395;28;20190;-69
2021/08/14 03:38:32;;;;;;;19.33;7.50;;;;;;;;;;5022698;28;20187;-69
2021/08/14 03:40:57;;;;;;;28.90;9.15;;;;;;;;;;5018268;28;20664;-69
2021/08/14 03:43:23;;;;;;;25.05;8.88;;;;;;;;;;5022688;28;20190;-69
2021/08/14 03:45:48;;;;;;;25.73;8.27;;;;;;;;;;5017884;28;20201;-69
2021/08/14 03:48:13;;;;;;;25.75;9.07;;;;;;;;;;5023230;28;20186;-69
2021/08/14 03:50:39;;;;;;;23.08;8.57;;;;;;;;;;5014899;28;20185;-69
2021/08/14 03:53:04;;;;;;;21.55;8.70;;;;;;;;;;5018142;28;20201;-68
2021/08/14 03:55:30;;;;;;;24.67;8.98;;;;;;;;;;5011429;28;20195;-69
2021/08/14 03:57:55;;;;;;;24.50;7.57;;;;;;;;;;5020930;28;20245;-69
2021/08/14 04:00:21;;;;;;;25.50;8.43;;;;;;;;;;5008948;28;20360;-69
2021/08/14 04:02:46;;;;;;;27.10;8.50;;;;;;;;;;5020912;28;20559;-69
2021/08/14 04:05:11;;;;;;;20.92;8.70;;;;;;;;;;5016471;28;20179;-68
2021/08/14 04:07:37;;;;;;;24.27;8.40;;;;;;;;;;5008839;28;20287;-69
2021/08/14 04:10:02;;;;;;;24.08;9.45;;;;;;;;;;5016246;28;20187;-69
2021/08/14 04:12:28;;;;;;;26.08;9.07;;;;;;;;;;5010758;28;20185;-68
2021/08/14 04:14:53;;;;;;;25.40;8.48;;;;;;;;;;5024048;28;20265;-69
2021/08/14 04:17:18;;;;;;;23.98;7.32;;;;;;;;;;5008502;28;20197;-68
2021/08/14 04:19:44;;;;;;;19.77;8.13;;;;;;;;;;5031694;28;20233;-69
2021/08/14 04:22:09;;;;;;;23.95;8.90;;;;;;;;;;5014503;28;20240;-70
2021/08/14 04:24:34;;;;;;;28.23;9.55;;;;;;;;;;5023887;28;20221;-68
2021/08/14 04:27:00;;;;;;;25.58;8.77;;;;;;;;;;5012255;28;20267;-69
2021/08/14 04:29:27;;;;;;;25.13;8.95;;;;;;;;;;5027739;28;20182;-68
2021/08/14 04:31:52;;;;;;;23.15;8.27;;;;;;;;;;5012367;28;20222;-69
2021/08/14 04:34:18;;;;;;;29.92;9.85;;;;;;;;;;5021894;28;20206;-68
2021/08/14 04:36:43;;;;;;;21.35;8.25;;;;;;;;;;5014825;28;20581;-70
2021/08/14 04:39:09;;;;;;;19.48;8.75;;;;;;;;;;5009706;28;20710;-68
2021/08/14 04:41:34;;;;;;;24.02;8.00;;;;;;;;;;5016068;28;20192;-69
2021/08/14 04:43:59;;;;;;;24.85;8.80;;;;;;;;;;5012811;28;20603;-69
2021/08/14 04:46:25;;;;;;;28.38;8.88;;;;;;;;;;5017159;28;20662;-68
2021/08/14 04:48:50;;;;;;;25.73;9.20;;;;;;;;;;5011430;28;20182;-68
2021/08/14 04:51:15;;;;;;;25.40;9.07;;;;;;;;;;5016418;28;20247;-69
2021/08/14 04:53:41;;;;;;;22.02;8.57;;;;;;;;;;5010685;28;20197;-68
2021/08/14 04:56:07;;;;;;;30.70;8.63;;;;;;;;;;5016044;28;20182;-69
2021/08/14 04:58:32;;;;;;;24.75;8.65;;;;;;;;;;5011613;28;20261;-69
2021/08/14 05:00:57;;;;;;;27.52;7.75;;;;;;;;;;5016597;28;20705;-68
2021/08/14 05:03:23;;;;;;;19.88;7.63;;;;;;;;;;5014075;28;20185;-70
2021/08/14 05:05:48;;;;;;;24.95;8.57;;;;;;;;;;5013771;28;20193;-69
2021/08/14 05:08:13;;;;;;;22.75;7.90;;;;;;;;;;5020991;28;20182;-69
2021/08/14 05:10:39;;;;;;;21.58;8.68;;;;;;;;;;5008221;28;20182;-68
2021/08/14 05:13:04;;;;;;;24.33;7.90;;;;;;;;;;5014299;28;20631;-69
2021/08/14 05:15:30;;;;;;;31.42;8.68;;;;;;;;;;5024000;28;20182;-68
2021/08/14 05:17:55;;;;;;;22.45;7.93;;;;;;;;;;5017452;28;20196;-68
2021/08/14 05:20:21;;;;;;;23.42;7.32;;;;;;;;;;5010813;28;20712;-67
2021/08/14 05:22:46;;;;;;;24.08;8.48;;;;;;;;;;5019273;28;20217;-69
2021/08/14 05:25:11;;;;;;;19.88;7.10;;;;;;;;;;5011216;28;20194;-71
2021/08/14 05:27:37;;;;;;;24.13;8.32;;;;;;;;;;5020112;28;20680;-67
2021/08/14 05:30:03;;;;;;;21.38;8.65;;;;;;;;;;5010091;28;20264;-68
2021/08/14 05:32:28;;;;;;;19.60;8.05;;;;;;;;;;5023593;28;20185;-68
2021/08/14 05:34:53;;;;;;;27.08;8.80;;;;;;;;;;5019005;28;20187;-69
2021/08/14 05:37:19;;;;;;;23.77;7.78;;;;;;;;;;5013354;28;20186;-68
2021/08/14 05:39:44;;;;;;;24.30;8.20;;;;;;;;;;5018172;28;20193;-69
2021/08/14 05:42:10;;;;;;;23.52;8.40;;;;;;;;;;5014710;28;20190;-68
2021/08/14 05:44:36;;;;;;;25.50;8.60;;;;;;;;;;5020556;28;20193;-69
2021/08/14 05:47:01;;;;;;;23.98;8.15;;;;;;;;;;5008591;28;20217;-69
2021/08/14 05:49:26;;;;;;;27.20;9.13;;;;;;;;;;5019931;28;20190;-68
2021/08/14 05:51:52;;;;;;;20.02;8.13;;;;;;;;;;5015970;28;20185;-68
2021/08/14 05:54:17;;;;;;;25.15;8.90;;;;;;;;;;5020047;28;20190;-68
2021/08/14 05:56:43;;;;;;;17.30;8.40;;;;;;;;;;5012175;28;20171;-69
2021/08/14 05:59:08;;;;;;;25.30;8.32;;;;;;;;;;5020470;28;20237;-69
2021/08/14 06:01:34;;;;;;;19.83;7.72;;;;;;;;;;5014706;28;20658;-68
2021/08/14 06:03:59;;;;;;;20.02;8.60;;;;;;;;;;5018314;28;20202;-68
2021/08/14 06:06:24;;;;;;;21.63;8.27;;;;;;;;;;5022516;28;20198;-68
2021/08/14 06:08:50;;;;;;;23.10;8.10;;;;;;;;;;5012023;28;20316;-69
2021/08/14 06:11:15;;;;;;;27.25;8.90;;;;;;;;;;5018607;28;20208;-69
2021/08/14 06:13:40;;;;;;;24.90;8.45;;;;;;;;;;5011455;28;20190;-68
2021/08/14 06:16:09;;;;;;;24.52;8.23;;;;;;;;;;5025247;28;20356;-69
2021/08/14 06:18:34;;;;;;;24.23;7.78;;;;;;;;;;5017124;28;20190;-68
2021/08/14 06:20:59;;;;;;;26.83;8.55;;;;;;;;;;5032686;28;20594;-68
2021/08/14 06:23:25;;;;;;;28.52;10.00;;;;;;;;;;5013078;28;20622;-69
2021/08/14 06:25:50;;;;;;;19.55;8.40;;;;;;;;;;5025531;28;20178;-69
2021/08/14 06:28:15;;;;;;;23.10;8.45;;;;;;;;;;5013385;28;20196;-68
2021/08/14 06:30:41;;;;;;;23.80;9.27;;;;;;;;;;5020174;28;20212;-69
2021/08/14 06:33:06;;;;;;;19.17;8.57;;;;;;;;;;5014819;28;20643;-68
2021/08/14 06:35:31;;;;;;;22.67;8.82;;;;;;;;;;5025117;28;20181;-68
2021/08/14 06:37:57;;;;;;;23.45;8.70;;;;;;;;;;5022271;28;20191;-68
2021/08/14 06:40:22;;;;;;;26.45;9.43;;;;;;;;;;5009554;28;20217;-68
2021/08/14 06:42:47;;;;;;;27.45;9.00;;;;;;;;;;5023394;28;20190;-69
2021/08/14 06:45:13;;;;;;;22.15;8.48;;;;;;;;;;5016726;28;20612;-68
2021/08/14 06:47:38;;;;;;;27.00;9.05;;;;;;;;;;5020681;28;20245;-68
2021/08/14 06:50:05;;;;;;;28.35;8.95;;;;;;;;;;5014367;28;20236;-70
2021/08/14 06:52:30;;;;;;;23.75;8.68;;;;;;;;;;5020902;28;20194;-68
2021/08/14 06:54:56;;;;;;;18.67;6.72;;;;;;;;;;5014488;28;20205;-69
2021/08/14 06:57:21;;;;;;;20.48;8.38;;;;;;;;;;5019698;28;20293;-69
2021/08/14 06:59:46;;;;;;;25.40;8.18;;;;;;;;;;5016193;28;21959;-69
2021/08/14 07:02:11;;;;;;;28.85;8.82;;;;;;;;;;5022433;28;20964;-69
2021/08/14 07:04:37;;;;;;;19.00;7.32;;;;;;;;;;5016078;28;20661;-68
2021/08/14 07:07:02;;;;;;;21.45;6.88;;;;;;;;;;5010248;28;20241;-70
2021/08/14 07:09:28;;;;;;;18.23;7.65;;;;;;;;;;5024256;28;20546;-69
2021/08/14 07:11:53;;;;;;;17.70;7.95;;;;;;;;;;5012948;28;20628;-69
2021/08/14 07:14:18;;;;;;;19.33;7.80;;;;;;;;;;5026855;28;20697;-69
2021/08/14 07:16:44;;;;;;;18.50;7.50;;;;;;;;;;5011416;28;20309;-69
2021/08/14 07:19:09;;;;;;;20.50;7.57;;;;;;;;;;5020506;28;20688;-71
2021/08/14 07:21:34;;;;;;;21.35;8.43;;;;;;;;;;5015898;28;20193;-69
2021/08/14 07:24:00;;;;;;;26.45;8.30;;;;;;;;;;5027816;28;20195;-68
2021/08/14 07:26:25;;;;;;;18.63;7.40;;;;;;;;;;5011275;28;20209;-70
2021/08/14 07:28:51;;;;;;;27.15;7.97;;;;;;;;;;5024475;28;20209;-69
2021/08/14 07:31:16;;;;;;;17.25;6.93;;;;;;;;;;5016195;28;20634;-69
2021/08/14 07:33:42;;;;;;;20.60;6.90;;;;;;;;;;5020726;28;20674;-70
2021/08/14 07:36:08;;;;;;;16.77;6.43;;;;;;;;;;5022502;28;20186;-69
2021/08/14 07:38:34;;;;;;;21.45;7.00;;;;;;;;;;5013954;28;20273;-68
2021/08/14 07:40:59;;;;;;;16.85;6.55;;;;;;;;;;5019873;28;20269;-69
2021/08/14 07:43:25;;;;;;;22.92;7.05;;;;;;;;;;5016418;28;20190;-69
2021/08/14 07:45:50;;;;;;;20.33;6.32;;;;;;;;;;5021445;28;20186;-68
2021/08/14 07:48:15;;;;;;;18.60;5.85;;;;;;;;;;5016867;28;20187;-69
2021/08/14 07:50:41;;;;;;;16.02;5.63;;;;;;;;;;5022995;28;20187;-70
2021/08/14 07:53:06;;;;;;;18.02;5.80;;;;;;;;;;5009461;28;20556;-68
2021/08/14 07:55:32;;;;;;;18.42;5.80;;;;;;;;;;5021936;28;20244;-69
2021/08/14 07:57:58;;;;;;;18.88;6.15;;;;;;;;;;5014350;28;20206;-69
2021/08/14 08:00:25;;;;;;;19.65;6.40;;;;;;;;;;5025110;28;20233;-69
2021/08/14 08:02:52;;;;;;;16.13;5.28;;;;;;;;;;5019074;28;20559;-70
2021/08/14 08:05:18;;;;;;;16.02;5.28;;;;;;;;;;5021671;28;20186;-68
2021/08/14 08:07:44;;;;;;;18.65;6.05;;;;;;;;;;5019413;28;20618;-70
2021/08/14 08:10:16;;;;;;;11.85;5.07;;;;;;;;;;5015252;28;20216;-70
2021/08/14 08:12:41;;;;;;;18.35;4.63;;;;;;;;;;5019164;28;20202;-70
2021/08/14 08:15:08;;;;;;;17.70;5.13;;;;;;;;;;5025957;28;20255;-69
2021/08/14 08:17:34;;;;;;;18.13;5.18;;;;;;;;;;5021112;28;20676;-68
2021/08/14 08:20:00;;;;;;;16.10;5.43;;;;;;;;;;5013737;28;20182;-69
2021/08/14 08:22:26;;;;;;;15.90;5.20;;;;;;;;;;5019340;28;20696;-70
2021/08/14 08:24:51;;;;;;;16.95;5.32;;;;;;;;;;5014093;28;20193;-69
2021/08/14 08:27:17;;;;;;;17.33;5.20;;;;;;;;;;5019150;28;20204;-70
2021/08/14 08:29:42;;;;;;;20.15;5.38;;;;;;;;;;5019373;28;20645;-70
2021/08/14 08:32:08;;;;;;;23.33;5.28;;;;;;;;;;5023052;28;20273;-69
2021/08/14 08:34:34;;;;;;;20.75;5.63;;;;;;;;;;5015288;28;20194;-69
2021/08/14 08:36:59;;;;;;;18.13;5.32;;;;;;;;;;5023132;28;20264;-70
2021/08/14 08:39:25;;;;;;;14.65;5.55;;;;;;;;;;5014509;28;20186;-72
2021/08/14 08:41:51;;;;;;;22.75;6.25;;;;;;;;;;5019715;28;20178;-70
2021/08/14 08:44:17;;;;;;;15.77;5.57;;;;;;;;;;5022449;28;20201;-70
2021/08/14 08:46:45;;;;;;;15.77;5.20;;;;;;;;;;5012495;28;20312;-69
2021/08/14 08:49:13;;;;;;;13.57;4.78;;;;;;;;;;5019163;28;20182;-70
2021/08/14 08:51:38;;;;;;;14.85;4.97;;;;;;;;;;5013137;28;20212;-71
2021/08/14 08:54:04;;;;;;;18.27;4.95;;;;;;;;;;5020703;28;20186;-70
2021/08/14 08:56:30;;;;;;;14.43;5.25;;;;;;;;;;5009053;28;20190;-69
2021/08/14 08:58:55;;;;;;;19.27;5.78;;;;;;;;;;5020838;28;20234;-70
2021/08/14 09:01:21;;;;;;;22.05;5.20;;;;;;;;;;5010684;28;20268;-68
2021/08/14 09:03:46;;;;;;;15.13;5.10;;;;;;;;;;5014775;28;20190;-69
2021/08/14 09:06:13;;;;;;;15.70;5.75;;;;;;;;;;5009499;28;20657;-69
2021/08/14 09:08:38;;;;;;;30.85;6.53;;;;;;;;;;5019044;28;20187;-68
2021/08/14 09:11:14;;;;;;;18.77;5.35;;;;;;;;;;5011591;28;20603;-70
2021/08/14 09:14:06;;;;;;;36.53;7.18;;;;;;;;;;5016920;28;20250;-69
2021/08/14 09:16:31;;;;;;;17.73;5.18;;;;;;;;;;5009068;28;20544;-70
2021/08/14 09:19:00;;;;;;;14.43;4.68;;;;;;;;;;5017796;28;20249;-69
2021/08/14 09:21:40;;;;;;;28.00;5.70;;;;;;;;;;5013292;28;20614;-69
2021/08/14 09:24:07;;;;;;;19.15;5.55;;;;;;;;;;5018245;28;20260;-70
2021/08/14 09:26:45;;;;;;;17.48;5.72;;;;;;;;;;5014456;28;20233;-69
2021/08/14 09:29:10;;;;;;;14.75;4.93;;;;;;;;;;5023354;28;20206;-70
2021/08/14 09:31:49;;;;;;;42.40;8.50;;;;;;;;;;5015231;28;20222;-68
2021/08/14 09:34:16;;;;;;;17.50;5.10;;;;;;;;;;5011540;28;20190;-69
2021/08/14 09:36:42;;;;;;;13.85;4.88;;;;;;;;;;5016669;28;20194;-69
2021/08/14 09:39:07;;;;;;;21.20;5.47;;;;;;;;;;5012592;28;20227;-69
2021/08/14 09:41:33;;;;;;;18.80;5.18;;;;;;;;;;5017375;28;20186;-70
2021/08/14 09:43:58;;;;;;;17.90;5.63;;;;;;;;;;5010553;28;21894;-70
2021/08/14 09:46:39;;;;;;;13.48;4.60;;;;;;;;;;5015489;28;20213;-70
2021/08/14 09:49:05;;;;;;;23.58;5.13;;;;;;;;;;5016144;28;20193;-68
2021/08/14 09:51:32;;;;;;;12.50;4.53;;;;;;;;;;5020627;28;20442;-68
2021/08/14 09:54:03;;;;;;;13.48;4.55;;;;;;;;;;5013437;28;20192;-69
2021/08/14 09:56:34;;;;;;;14.63;5.32;;;;;;;;;;5020249;28;20625;-69
2021/08/14 09:59:01;;;;;;;11.65;4.05;;;;;;;;;;5007355;28;20237;-71
2021/08/14 10:01:27;;;;;;;12.68;4.45;;;;;;;;;;5018528;28;20233;-69
2021/08/14 10:03:53;;;;;;;14.55;4.15;;;;;;;;;;5009194;28;20663;-69
2021/08/14 10:06:19;;;;;;;13.68;4.10;;;;;;;;;;5018246;28;20206;-69
2021/08/14 10:08:45;;;;;;;13.77;4.47;;;;;;;;;;5018003;28;20296;-70
2021/08/14 10:11:14;;;;;;;13.90;4.10;;;;;;;;;;5008835;28;20389;-69
2021/08/14 10:13:41;;;;;;;15.43;4.95;;;;;;;;;;4323754;28;10000837;-70
2021/08/14 10:16:06;;;;;;;10.05;4.43;;;;;;;;;;5024071;28;20193;-70
2021/08/14 10:18:33;;;;;;;13.38;4.53;;;;;;;;;;5016824;28;20182;-69
2021/08/14 10:20:58;;;;;;;12.20;4.20;;;;;;;;;;5020698;28;20534;-69
2021/08/14 10:23:24;;;;;;;15.25;4.97;;;;;;;;;;5016971;28;20195;-68
2021/08/14 10:26:05;;;;;;;15.63;4.57;;;;;;;;;;5012399;28;20305;-68
2021/08/14 10:28:52;;;;;;;14.77;4.53;;;;;;;;;;5024791;28;20221;-68
2021/08/14 10:31:30;;;;;;;13.15;4.30;;;;;;;;;;5020852;28;20208;-70
2021/08/14 10:34:15;;;;;;;17.63;4.63;;;;;;;;;;5021870;28;20220;-69
2021/08/14 10:36:42;;;;;;;17.45;4.72;;;;;;;;;;5021596;28;20194;-72
2021/08/14 10:39:27;;;;;;;11.63;4.40;;;;;;;;;;5020380;28;20198;-69
2021/08/14 10:41:55;;;;;;;15.27;4.75;;;;;;;;;;5017683;28;20276;-70
2021/08/14 10:45:11;;;;;;;13.30;4.38;;;;;;;;;;5019499;28;20197;-69
2021/08/14 10:47:40;;;;;;;13.85;4.47;;;;;;;;;;5029827;28;20218;-70
2021/08/14 10:50:05;;;;;;;12.40;4.93;;;;;;;;;;5026251;28;20207;-72
2021/08/14 10:52:32;;;;;;;15.10;4.30;;;;;;;;;;5012184;28;20235;-69
2021/08/14 10:54:58;;;;;;;14.60;4.57;;;;;;;;;;5016327;28;20654;-67
2021/08/14 10:57:37;;;;;;;24.10;5.63;;;;;;;;;;5011386;28;20196;-69
2021/08/14 11:00:05;;;;;;;15.70;5.38;;;;;;;;;;5017503;28;20659;-68
2021/08/14 11:02:31;;;;;;;13.05;5.15;;;;;;;;;;5011379;28;20186;-68
2021/08/14 11:04:57;;;;;;;13.35;5.45;;;;;;;;;;5023881;28;20182;-72
2021/08/14 11:07:23;;;;;;;13.32;4.80;;;;;;;;;;5007850;28;20210;-68
2021/08/14 11:09:51;;;;;;;21.08;5.65;;;;;;;;;;5023780;28;20182;-68
2021/08/14 11:12:42;;;;;;;28.48;7.00;;;;;;;;;;5011865;28;22307;-70
2021/08/14 11:15:25;;;;;;;21.67;6.25;;;;;;;;;;5023875;28;20306;-69
2021/08/14 11:17:51;;;;;;;21.70;5.80;;;;;;;;;;5010190;28;20190;-68
2021/08/14 11:20:20;;;;;;;15.45;5.47;;;;;;;;;;5019667;28;20638;-70
2021/08/14 11:22:50;;;;;;;18.77;5.60;;;;;;;;;;5012277;28;20708;-69
2021/08/14 11:25:40;;;;;;;12.40;5.72;;;;;;;;;;5021100;28;20228;-70
2021/08/14 11:28:07;;;;;;;14.63;5.43;;;;;;;;;;5009799;28;20268;-67
2021/08/14 11:30:38;;;;;;;18.60;5.55;;;;;;;;;;5021011;28;20201;-69
2021/08/14 11:33:06;;;;;;;18.23;5.72;;;;;;;;;;5015796;28;20182;-70
2021/08/14 11:35:33;;;;;;;16.55;5.32;;;;;;;;;;5022216;28;20202;-70
2021/08/14 11:38:04;;;;;;;13.85;5.47;;;;;;;;;;5020080;28;20178;-70
2021/08/14 11:40:32;;;;;;;14.30;5.55;;;;;;;;;;5010549;28;20235;-67
2021/08/14 11:42:59;;;;;;;18.05;5.65;;;;;;;;;;5021855;28;20178;-70
2021/08/14 11:45:26;;;;;;;17.02;5.88;;;;;;;;;;5012642;28;20190;-69
2021/08/14 11:48:18;;;;;;;15.68;5.65;;;;;;;;;;5022144;28;20282;-69
2021/08/14 11:50:48;;;;;;;15.60;6.20;;;;;;;;;;5010141;28;20301;-67
2021/08/14 11:53:24;;;;;;;17.35;5.82;;;;;;;;;;5022438;28;20595;-67
2021/08/14 11:56:07;;;;;;;13.40;5.45;;;;;;;;;;5013524;28;20572;-68
2021/08/14 11:58:33;;;;;;;17.33;5.80;;;;;;;;;;5032775;28;20282;-70
2021/08/14 12:00:59;;;;;;;18.27;5.70;;;;;;;;;;5009251;28;20227;-68
2021/08/14 12:03:25;;;;;;;18.23;5.47;;;;;;;;;;5022989;28;20186;-69
2021/08/14 12:05:51;;;;;;;17.98;5.70;;;;;;;;;;5012383;28;20198;-68
2021/08/14 12:08:31;;;;;;;15.85;5.35;;;;;;;;;;5026706;28;20210;-70
2021/08/14 12:11:01;;;;;;;12.60;5.07;;;;;;;;;;5010865;28;20972;-68
2021/08/14 12:13:27;;;;;;;24.85;6.05;;;;;;;;;;5021016;28;20182;-67
2021/08/14 12:15:52;;;;;;;21.05;6.28;;;;;;;;;;5012514;28;20682;-70
2021/08/14 12:18:34;;;;;;;18.92;5.47;;;;;;;;;;5025565;28;20182;-68
2021/08/14 12:21:01;;;;;;;12.00;5.57;;;;;;;;;;5012262;28;20649;-70
2021/08/14 12:23:29;;;;;;;21.63;5.65;;;;;;;;;;5022003;28;20221;-69
2021/08/14 12:25:55;;;;;;;15.38;5.57;;;;;;;;;;5009345;28;20190;-68
2021/08/14 12:28:25;;;;;;;19.17;5.65;;;;;;;;;;5026879;28;20188;-69
2021/08/14 12:30:50;;;;;;;17.08;5.40;;;;;;;;;;5015761;28;20697;-69
2021/08/14 12:33:30;;;;;;;12.13;5.10;;;;;;;;;;5009290;28;20273;-70
2021/08/14 12:35:57;;;;;;;15.93;5.25;;;;;;;;;;5029912;28;20198;-70
2021/08/14 12:38:23;;;;;;;15.95;4.60;;;;;;;;;;5012960;28;20682;-68
2021/08/14 12:40:49;;;;;;;14.05;4.97;;;;;;;;;;5022391;28;20585;-68
2021/08/14 12:43:17;;;;;;;11.88;4.57;;;;;;;;;;5010783;28;20178;-67
2021/08/14 12:45:43;;;;;;;14.00;4.63;;;;;;;;;;5018400;28;20289;-69
2021/08/14 12:48:11;;;;;;;10.43;4.05;;;;;;;;;;5012585;28;20292;-69
2021/08/14 12:50:38;;;;;;;10.48;4.50;;;;;;;;;;5017028;28;20187;-68
2021/08/14 12:53:15;;;;;;;11.38;4.32;;;;;;;;;;5010014;28;20201;-71
2021/08/14 12:55:49;;;;;;;11.55;3.97;;;;;;;;;;5022423;28;20216;-69
2021/08/14 12:58:19;;;;;;;12.27;4.28;;;;;;;;;;5014353;28;20544;-68
2021/08/14 13:00:49;;;;;;;11.68;4.10;;;;;;;;;;5017759;28;20225;-70
2021/08/14 13:03:15;;;;;;;12.55;4.45;;;;;;;;;;5011743;28;20245;-67
2021/08/14 13:05:42;;;;;;;15.73;5.35;;;;;;;;;;5017114;28;20283;-67
2021/08/14 13:08:08;;;;;;;12.75;4.25;;;;;;;;;;5017926;28;20236;-68
2021/08/14 13:10:35;;;;;;;11.00;3.90;;;;;;;;;;5017328;28;20199;-70
2021/08/14 13:13:02;;;;;;;16.90;4.85;;;;;;;;;;5021605;28;20264;-69
2021/08/14 13:15:28;;;;;;;17.40;5.05;;;;;;;;;;5005863;28;20205;-68
2021/08/14 13:17:55;;;;;;;11.43;4.32;;;;;;;;;;5020073;28;20174;-68
2021/08/14 13:20:22;;;;;;;10.32;4.40;;;;;;;;;;5009215;28;20225;-67
2021/08/14 13:22:49;;;;;;;22.27;6.80;;;;;;;;;;5023493;28;20339;-68
2021/08/14 13:25:15;;;;;;;15.73;5.05;;;;;;;;;;5014698;28;20189;-68
2021/08/14 13:27:43;;;;;;;13.23;5.72;;;;;;;;;;5021578;28;20213;-69
2021/08/14 13:30:14;;;;;;;9.18;4.80;;;;;;;;;;5015802;28;20187;-70
2021/08/14 13:32:40;;;;;;;13.95;5.07;;;;;;;;;;5023314;28;20642;-70
2021/08/14 13:35:07;;;;;;;15.25;5.75;;;;;;;;;;5022555;28;20190;-69
2021/08/14 13:37:32;;;;;;;15.48;6.07;;;;;;;;;;5022437;28;20562;-70
2021/08/14 13:39:58;;;;;;;13.68;5.72;;;;;;;;;;5018717;28;20190;-68
2021/08/14 13:42:23;;;;;;;11.10;6.93;;;;;;;;;;5027355;28;20206;-69
2021/08/14 13:44:48;;;;;;;17.83;8.90;;;;;;;;;;5022601;28;20186;-69
2021/08/14 13:47:14;;;;;;;21.55;8.85;;;;;;;;;;5020344;28;20214;-68
2021/08/14 13:49:39;;;;;;;26.33;11.02;;;;;;;;;;5030016;28;20190;-67
2021/08/14 13:52:05;;;;;;;17.55;9.05;;;;;;;;;;5019225;28;20281;-70
2021/08/14 13:54:30;;;;;;;22.52;10.55;;;;;;;;;;5021049;28;20281;-67
2021/08/14 13:56:56;;;;;;;19.08;10.70;;;;;;;;;;5019098;28;20185;-68
2021/08/14 13:59:21;;;;;;;25.33;10.50;;;;;;;;;;5022731;28;20209;-67
2021/08/14 14:01:47;;;;;;;21.58;10.15;;;;;;;;;;5016845;28;20236;-67
2021/08/14 14:04:12;;;;;;;17.13;9.80;;;;;;;;;;5022489;28;20201;-68
2021/08/14 14:06:37;;;;;;;21.15;10.40;;;;;;;;;;5017735;28;20275;-69
2021/08/14 14:09:03;;;;;;;22.42;10.50;;;;;;;;;;5023270;28;20200;-69
2021/08/14 14:11:28;;;;;;;22.40;10.70;;;;;;;;;;5015165;28;20194;-73
2021/08/14 14:13:54;;;;;;;26.15;11.40;;;;;;;;;;5025298;28;20256;-67
2021/08/14 14:16:19;;;;;;;24.77;11.02;;;;;;;;;;5020315;28;20194;-67
2021/08/14 14:18:45;;;;;;;20.52;10.23;;;;;;;;;;5022302;28;20178;-69
2021/08/14 14:21:10;;;;;;;22.73;11.60;;;;;;;;;;5022530;28;21318;-67
2021/08/14 14:23:36;;;;;;;20.70;10.10;;;;;;;;;;5022155;28;21084;-69
2021/08/14 14:26:01;;;;;;;19.90;10.32;;;;;;;;;;5024578;28;20221;-69
2021/08/14 14:28:26;;;;;;;21.27;11.10;;;;;;;;;;5015893;28;20205;-67